Time;durP1;ratioP1;P1;durP2;ratioP2;P2;SDS_P1;SDS_P2;PMS_P1;PMS_P2;Temp;Humidity;BMP_temperature;BMP_pressure;BME280_temperature;BME280_humidity;BME280_pressure;Samples;Min_cycle;Max_cycle;Signal;HPM_P1;HPM_P2
2022/06/07 00:02:07;;;;;;;0.10;0.10;;;;;;;16.32;65.68;101387.25;5082996;28;20406;-73
2022/06/07 00:04:35;;;;;;;1.27;0.80;;;;;;;16.30;65.76;101386.44;5086813;28;20105;-74
2022/06/07 00:07:02;;;;;;;0.10;0.10;;;;;;;16.28;65.88;101385.63;5086081;28;20024;-74
2022/06/07 00:09:28;;;;;;;0.30;0.30;;;;;;;16.34;65.70;101382.72;5096888;28;20039;-72
2022/06/07 00:11:54;;;;;;;0.20;0.20;;;;;;;16.32;65.87;101388.13;5084966;28;20443;-73
2022/06/07 00:14:20;;;;;;;1.35;0.63;;;;;;;16.38;65.82;101379.00;5070903;28;20103;-73
2022/06/07 00:16:47;;;;;;;0.10;0.10;;;;;;;16.36;65.99;101374.63;5064096;28;20035;-73
2022/06/07 00:19:13;;;;;;;0.10;0.10;;;;;;;16.37;66.21;101377.25;5070798;28;20024;-73
2022/06/07 00:21:39;;;;;;;0.28;0.28;;;;;;;16.32;66.05;101377.44;5070107;28;20530;-73
2022/06/07 00:24:06;;;;;;;0.35;0.35;;;;;;;16.37;66.17;101371.91;5069281;28;20060;-73
2022/06/07 00:26:33;;;;;;;0.20;0.20;;;;;;;16.37;66.20;101366.56;5069908;28;20555;-72
2022/06/07 00:29:00;;;;;;;0.40;0.40;;;;;;;16.32;66.22;101373.88;5078701;28;20036;-72
2022/06/07 00:31:29;;;;;;;0.13;0.13;;;;;;;16.24;66.75;101370.63;5063549;28;20020;-72
2022/06/07 00:33:55;;;;;;;0.08;0.08;;;;;;;16.19;66.69;101378.78;5061841;28;20048;-73
2022/06/07 00:36:22;;;;;;;0.10;0.10;;;;;;;16.07;67.21;101372.06;5071633;28;20035;-73
2022/06/07 00:38:48;;;;;;;0.10;0.10;;;;;;;16.09;67.05;101369.34;5060654;28;20056;-72
2022/06/07 00:41:14;;;;;;;0.10;0.10;;;;;;;16.09;66.98;101362.19;5069685;28;20193;-72
2022/06/07 00:44:02;;;;;;;0.10;0.10;;;;;;;16.06;67.38;101359.59;5071969;28;20108;-71
2022/06/07 00:46:28;;;;;;;0.10;0.10;;;;;;;16.04;66.99;101364.16;5067201;28;21841;-72
2022/06/07 00:48:54;;;;;;;0.10;0.10;;;;;;;15.99;67.33;101366.13;5064217;28;20494;-72
2022/06/07 00:51:21;;;;;;;0.38;0.38;;;;;;;15.94;67.50;101352.03;5070254;28;20036;-72
2022/06/07 00:53:47;;;;;;;0.10;0.10;;;;;;;15.93;67.21;101361.84;5063244;28;20063;-72
2022/06/07 00:56:14;;;;;;;0.10;0.10;;;;;;;15.94;67.44;101358.25;5069161;28;20032;-72
2022/06/07 00:58:40;;;;;;;0.10;0.10;;;;;;;15.93;67.49;101355.63;5072113;28;20036;-73
2022/06/07 01:01:06;;;;;;;0.73;0.73;;;;;;;15.93;67.38;101352.97;5070401;28;20029;-73
2022/06/07 01:03:32;;;;;;;2.28;0.50;;;;;;;15.92;67.46;101351.22;5065376;28;20028;-72
2022/06/07 01:10:43;;;;;;;0.45;0.45;;;;;;;15.98;67.52;101351.00;5061289;28;20040;-72
2022/06/07 01:11:30;;;;;;;0.10;0.10;;;;;;;15.98;67.38;101343.84;5069568;28;20047;-72
2022/06/07 01:13:57;;;;;;;0.10;0.10;;;;;;;16.01;67.40;101342.88;5071407;28;20040;-73
2022/06/07 01:16:23;;;;;;;0.10;0.10;;;;;;;16.03;67.36;101343.69;5068478;28;20029;-72
2022/06/07 01:18:49;;;;;;;0.40;0.40;;;;;;;16.03;67.58;101346.38;5064438;28;20036;-73
2022/06/07 01:21:20;;;;;;;0.10;0.10;;;;;;;16.00;68.09;101344.69;5064040;28;20013;-73
2022/06/07 01:23:48;;;;;;;0.40;0.40;;;;;;;16.05;68.00;101344.53;5066025;28;20058;-73
2022/06/07 01:26:14;;;;;;;0.10;0.10;;;;;;;16.04;68.49;101340.09;5068502;28;20502;-72
2022/06/07 01:28:41;;;;;;;0.10;0.10;;;;;;;16.10;67.86;101331.88;5067730;28;20037;-72
2022/06/07 01:31:07;;;;;;;0.15;0.15;;;;;;;16.11;68.21;101333.63;5069448;28;20032;-73
2022/06/07 01:33:34;;;;;;;0.10;0.10;;;;;;;16.14;67.80;101327.28;5065203;28;20469;-73
2022/06/07 01:36:06;;;;;;;0.17;0.17;;;;;;;16.16;67.81;101330.75;5070119;28;20028;-73
2022/06/07 01:38:35;;;;;;;0.10;0.10;;;;;;;16.18;68.04;101332.44;5064719;28;20044;-72
2022/06/07 01:43:48;;;;;;;0.38;0.38;;;;;;;16.16;68.07;101315.59;5067717;28;20040;-73
2022/06/07 01:46:14;;;;;;;0.10;0.10;;;;;;;16.14;68.10;101320.13;5070039;28;20033;-72
2022/06/07 01:48:41;;;;;;;0.10;0.10;;;;;;;16.06;68.53;101307.97;5065658;28;20071;-73
2022/06/07 01:51:09;;;;;;;0.10;0.10;;;;;;;16.04;68.67;101313.38;5070085;28;20032;-73
2022/06/07 01:53:36;;;;;;;0.10;0.10;;;;;;;16.04;68.40;101305.34;5065766;28;20111;-73
2022/06/07 01:56:06;;;;;;;0.10;0.10;;;;;;;16.05;68.51;101316.91;5060474;28;20038;-73
2022/06/07 01:58:33;;;;;;;0.10;0.10;;;;;;;16.05;68.61;101306.22;5066991;28;20036;-73
2022/06/07 02:00:59;;;;;;;0.10;0.10;;;;;;;16.03;68.67;101303.59;5069695;28;20225;-73
2022/06/07 02:03:25;;;;;;;0.10;0.10;;;;;;;16.09;68.81;101298.03;5064690;28;20056;-72
2022/06/07 02:06:03;;;;;;;0.10;0.10;;;;;;;16.12;68.65;101302.41;5068732;28;20036;-73
2022/06/07 02:08:29;;;;;;;0.10;0.10;;;;;;;16.06;68.80;101300.81;5062501;28;20056;-73
2022/06/07 02:11:03;;;;;;;0.10;0.10;;;;;;;16.13;68.67;101283.63;5074464;28;20033;-73
2022/06/07 02:13:29;;;;;;;0.10;0.10;;;;;;;16.09;68.51;101295.38;5060967;28;20140;-72
2022/06/07 02:15:55;;;;;;;0.10;0.10;;;;;;;16.08;68.46;101284.75;5070642;28;20134;-72
2022/06/07 02:18:21;;;;;;;1.02;0.90;;;;;;;16.08;68.33;101290.94;5080746;28;20398;-72
2022/06/07 02:20:47;;;;;;;0.05;0.05;;;;;;;16.07;68.24;101293.69;5073557;28;20024;-72
2022/06/07 02:23:14;;;;;;;0.15;0.15;;;;;;;16.08;68.36;101296.28;5091312;28;20078;-73
2022/06/07 02:25:47;;;;;;;0.10;0.10;;;;;;;16.11;68.35;101290.84;5088678;28;20489;-73
2022/06/07 02:28:16;;;;;;;0.20;0.20;;;;;;;16.06;68.39;101287.44;5078631;28;20038;-72
2022/06/07 02:30:44;;;;;;;0.10;0.10;;;;;;;16.01;68.62;101294.75;5077523;28;20024;-73
2022/06/07 02:33:12;;;;;;;0.25;0.25;;;;;;;16.05;68.31;101296.41;5075612;28;20023;-73
2022/06/07 02:35:42;;;;;;;1.25;1.23;;;;;;;16.01;68.00;101294.75;5087589;28;20142;-73
2022/06/07 02:38:09;;;;;;;0.20;0.20;;;;;;;16.09;68.04;101286.50;5077290;28;20118;-73
2022/06/07 02:40:36;;;;;;;0.10;0.10;;;;;;;16.12;67.96;101284.53;5080479;28;20067;-73
2022/06/07 02:43:03;;;;;;;0.20;0.20;;;;;;;16.12;67.98;101284.53;5084666;28;20021;-73
2022/06/07 02:45:30;;;;;;;0.40;0.40;;;;;;;16.13;67.75;101290.78;5074267;28;20033;-73
2022/06/07 02:47:56;;;;;;;0.10;0.10;;;;;;;16.07;67.79;101291.00;5075452;28;20515;-72
2022/06/07 02:50:22;;;;;;;0.13;0.13;;;;;;;16.15;67.87;101289.81;5081899;28;20149;-72
2022/06/07 02:52:49;;;;;;;0.20;0.20;;;;;;;16.09;67.96;101284.69;5082461;28;20520;-73
2022/06/07 02:55:15;;;;;;;0.20;0.20;;;;;;;16.09;67.69;101287.34;5079246;28;20032;-73
2022/06/07 02:57:42;;;;;;;0.20;0.20;;;;;;;16.09;67.59;101297.19;5080220;28;20022;-72
2022/06/07 03:00:11;;;;;;;0.35;0.35;;;;;;;16.08;67.68;101290.94;5073241;28;20039;-74
2022/06/07 03:02:37;;;;;;;0.10;0.10;;;;;;;16.08;67.56;101280.25;5078139;28;20024;-73
2022/06/07 03:05:04;;;;;;;0.50;0.50;;;;;;;16.04;67.95;101288.44;5079371;28;20031;-73
2022/06/07 03:07:30;;;;;;;0.47;0.47;;;;;;;15.92;68.16;101284.41;5074069;28;20028;-73
2022/06/07 03:09:56;;;;;;;0.10;0.10;;;;;;;15.99;67.98;101270.75;5089383;28;20404;-73
2022/06/07 03:12:22;;;;;;;0.30;0.30;;;;;;;15.93;67.98;101283.47;5063406;28;20021;-72
2022/06/07 03:14:48;;;;;;;0.32;0.32;;;;;;;15.93;68.05;101287.03;5077993;28;20383;-73
2022/06/07 03:17:15;;;;;;;0.10;0.10;;;;;;;15.97;67.77;101282.44;5086715;28;20028;-73
2022/06/07 03:19:41;;;;;;;0.30;0.30;;;;;;;15.87;67.75;101287.22;5071235;28;20024;-73
2022/06/07 03:22:07;;;;;;;0.10;0.10;;;;;;;15.82;67.97;101290.06;5062928;28;20062;-73
2022/06/07 03:24:35;;;;;;;1.45;0.68;;;;;;;15.89;67.86;101289.84;5082145;28;20509;-73
2022/06/07 03:27:02;;;;;;;0.77;0.77;;;;;;;15.85;67.97;101292.63;5076314;28;20055;-73
2022/06/07 03:29:28;;;;;;;0.50;0.50;;;;;;;15.81;67.68;101288.31;5077061;28;20025;-72
2022/06/07 03:31:54;;;;;;;0.10;0.10;;;;;;;15.90;67.57;101292.47;5084458;28;20095;-72
2022/06/07 03:34:21;;;;;;;1.25;1.17;;;;;;;15.92;66.91;101292.44;5077882;28;20081;-72
2022/06/07 03:36:47;;;;;;;0.10;0.10;;;;;;;16.01;67.38;101289.41;5075690;28;20436;-73
2022/06/07 03:39:13;;;;;;;0.00;0.00;;;;;;;15.95;67.45;101292.31;5081507;28;20024;-73
2022/06/07 03:41:39;;;;;;;0.10;0.10;;;;;;;15.85;66.84;101289.09;5072636;28;20084;-73
2022/06/07 03:44:06;;;;;;;0.25;0.25;;;;;;;15.96;66.93;101286.03;5083610;28;20041;-73
2022/06/07 03:46:33;;;;;;;0.20;0.20;;;;;;;16.01;66.99;101289.41;5080252;28;20024;-73
2022/06/07 03:49:00;;;;;;;0.10;0.10;;;;;;;16.01;66.88;101301.00;5077506;28;20486;-72
2022/06/07 03:51:28;;;;;;;0.08;0.08;;;;;;;16.00;66.93;101293.03;5076598;28;20021;-73
2022/06/07 03:53:55;;;;;;;0.50;0.50;;;;;;;16.01;67.03;101302.78;5085832;28;20493;-73
2022/06/07 03:56:23;;;;;;;0.20;0.20;;;;;;;15.99;66.76;101302.84;5071353;28;20031;-73
2022/06/07 03:58:50;;;;;;;0.10;0.10;;;;;;;16.02;66.92;101304.53;5081211;28;20028;-72
2022/06/07 04:01:17;;;;;;;0.43;0.43;;;;;;;15.95;66.68;101301.22;5089011;28;20028;-73
2022/06/07 04:03:45;;;;;;;0.10;0.10;;;;;;;16.05;66.40;101304.44;5076965;28;20052;-73
2022/06/07 04:08:57;;;;;;;0.52;0.52;;;;;;;16.01;66.13;101300.09;5143254;27;20381;-73
2022/06/07 04:11:25;;;;;;;0.03;0.03;;;;;;;16.11;66.16;101306.00;5131872;27;20084;-72
2022/06/07 04:13:53;;;;;;;0.10;0.10;;;;;;;16.10;66.50;101304.25;5145137;27;20023;-72
2022/06/07 04:16:22;;;;;;;0.10;0.10;;;;;;;16.13;66.18;101309.50;5137596;27;20492;-73
2022/06/07 04:18:49;;;;;;;0.10;0.10;;;;;;;16.09;65.90;101303.38;5136917;27;20031;-72
2022/06/07 04:21:15;;;;;;;0.32;0.32;;;;;;;16.15;65.90;101313.84;5145014;27;20023;-72
2022/06/07 04:23:42;;;;;;;0.77;0.77;;;;;;;16.17;65.77;101308.44;5129288;27;20392;-72
2022/06/07 04:26:13;;;;;;;0.15;0.15;;;;;;;16.19;65.79;101309.28;5136133;27;20153;-72
2022/06/07 04:28:39;;;;;;;0.10;0.10;;;;;;;16.26;65.80;101316.16;5137783;27;20016;-73
2022/06/07 04:31:16;;;;;;;0.17;0.17;;;;;;;16.22;65.34;101313.63;5143234;27;20504;-72
2022/06/07 04:33:44;;;;;;;0.57;0.57;;;;;;;16.25;65.76;101313.50;5130974;27;20110;-72
2022/06/07 04:36:13;;;;;;;0.30;0.30;;;;;;;16.28;65.50;101310.75;5142031;27;20023;-72
2022/06/07 04:38:41;;;;;;;1.38;0.55;;;;;;;16.12;65.29;101321.97;5140129;27;20737;-73
2022/06/07 04:41:13;;;;;;;0.10;0.10;;;;;;;16.26;65.34;101316.16;5133100;27;20032;-73
2022/06/07 04:43:39;;;;;;;3.63;1.35;;;;;;;16.23;65.02;101323.41;5145366;27;20057;-73
2022/06/07 04:46:07;;;;;;;0.68;0.68;;;;;;;16.21;65.32;101325.25;5127923;27;20037;-73
2022/06/07 04:48:34;;;;;;;0.20;0.20;;;;;;;16.33;64.84;101316.78;5138302;27;20020;-73
2022/06/07 04:51:05;;;;;;;2.83;1.08;;;;;;;16.37;65.46;101328.25;5142075;27;20543;-73
2022/06/07 04:53:31;;;;;;;0.10;0.10;;;;;;;16.41;65.09;101325.41;5131862;27;20043;-73
2022/06/07 04:55:59;;;;;;;0.30;0.30;;;;;;;16.29;64.79;101328.53;5143637;27;20038;-73
2022/06/07 04:58:26;;;;;;;0.20;0.20;;;;;;;16.44;65.13;101327.97;5137612;27;20015;-74
2022/06/07 05:00:52;;;;;;;0.73;0.73;;;;;;;16.32;65.13;101321.28;5134639;27;20034;-74
2022/06/07 05:03:19;;;;;;;0.10;0.10;;;;;;;16.49;65.07;101328.66;5128854;27;20496;-73
2022/06/07 05:05:45;;;;;;;0.80;0.80;;;;;;;16.49;64.54;101334.00;5122326;27;20546;-73
2022/06/07 05:08:11;;;;;;;0.10;0.10;;;;;;;16.44;64.47;101327.09;5134921;27;20079;-74
2022/06/07 05:10:40;;;;;;;0.10;0.10;;;;;;;16.64;64.14;101332.56;5137485;27;20038;-74
2022/06/07 05:13:06;;;;;;;0.38;0.38;;;;;;;16.65;64.29;101328.97;5143146;27;20029;-74
2022/06/07 05:15:32;;;;;;;0.75;0.75;;;;;;;16.58;63.67;101329.25;5131453;27;20038;-73
2022/06/07 05:17:58;;;;;;;0.10;0.10;;;;;;;16.72;64.45;101334.09;5134131;27;20063;-73
2022/06/07 05:20:25;;;;;;;0.10;0.10;;;;;;;16.74;63.13;101342.94;5127153;27;20049;-73
2022/06/07 05:22:51;;;;;;;0.43;0.43;;;;;;;16.69;63.61;101335.06;5116298;27;20035;-74
2022/06/07 05:25:18;;;;;;;1.65;0.80;;;;;;;16.73;62.99;101336.69;5110422;28;20389;-73
2022/06/07 05:27:49;;;;;;;1.65;0.57;;;;;;;16.86;62.64;101339.78;5100625;27;20011;-74
2022/06/07 05:30:16;;;;;;;0.20;0.20;;;;;;;16.79;62.71;101339.13;5126452;27;20035;-74
2022/06/07 05:32:42;;;;;;;0.20;0.20;;;;;;;16.78;62.30;101345.41;5124979;27;20449;-74
2022/06/07 05:35:09;;;;;;;1.92;0.95;;;;;;;16.96;62.40;101335.00;5133499;27;20381;-74
2022/06/07 05:37:36;;;;;;;0.13;0.13;;;;;;;17.03;62.23;101339.16;5116916;27;20023;-74
2022/06/07 05:40:03;;;;;;;0.32;0.32;;;;;;;17.20;62.39;101334.97;5128064;27;20063;-74
2022/06/07 05:42:30;;;;;;;0.20;0.20;;;;;;;17.13;61.75;101340.56;5123139;27;20055;-74
2022/06/07 05:44:57;;;;;;;0.30;0.30;;;;;;;17.21;61.72;101332.22;5120320;27;20031;-74
2022/06/07 05:47:23;;;;;;;0.50;0.50;;;;;;;17.26;61.45;101340.06;5118098;27;20023;-74
2022/06/07 05:49:49;;;;;;;0.00;0.00;;;;;;;17.26;61.21;101332.03;5120622;27;20723;-73
2022/06/07 05:52:15;;;;;;;0.10;0.10;;;;;;;17.36;61.33;101337.88;5125502;27;20047;-73
2022/06/07 05:54:42;;;;;;;0.10;0.10;;;;;;;17.22;60.33;101322.38;5121197;27;20019;-73
2022/06/07 05:57:10;;;;;;;0.65;0.65;;;;;;;17.40;60.33;101332.34;5122819;27;20015;-73
2022/06/07 05:59:36;;;;;;;0.52;0.30;;;;;;;17.24;59.97;101331.22;5125765;27;20028;-73
2022/06/07 06:02:03;;;;;;;0.10;0.10;;;;;;;17.30;60.12;101336.31;5122245;27;20104;-74
2022/06/07 06:04:29;;;;;;;0.20;0.20;;;;;;;17.24;60.33;101329.41;5127451;27;20039;-73
2022/06/07 06:06:57;;;;;;;0.20;0.20;;;;;;;17.35;60.19;101334.31;5115128;27;20036;-73
2022/06/07 06:10:23;;;;;;;0.77;0.77;;;;;;;17.42;60.04;101340.28;5119220;27;20034;-73
2022/06/07 06:12:11;;;;;;;0.30;0.30;;;;;;;17.21;59.99;101339.34;5106367;27;20117;-73
2022/06/07 06:14:37;;;;;;;0.10;0.10;;;;;;;17.46;60.45;101345.47;5132658;27;20023;-73
2022/06/07 06:17:04;;;;;;;0.10;0.10;;;;;;;17.46;60.23;101344.63;5118779;27;20089;-73
2022/06/07 06:19:30;;;;;;;1.38;0.50;;;;;;;17.63;59.79;101343.91;5129927;27;20034;-74
2022/06/07 06:21:56;;;;;;;0.43;0.43;;;;;;;17.63;60.00;101341.22;5117401;27;20409;-74
2022/06/07 06:24:23;;;;;;;0.40;0.40;;;;;;;17.55;59.73;101346.03;5124904;27;20023;-74
2022/06/07 06:26:52;;;;;;;0.95;0.95;;;;;;;17.62;59.48;101348.41;5120223;27;20089;-73
2022/06/07 06:29:18;;;;;;;1.85;1.75;;;;;;;17.69;59.39;101348.16;5129271;27;20032;-74
2022/06/07 06:31:46;;;;;;;0.43;0.43;;;;;;;17.65;59.25;101347.41;5102672;27;20027;-73
2022/06/07 06:34:12;;;;;;;0.47;0.43;;;;;;;17.61;59.48;101345.78;5120499;27;20572;-73
2022/06/07 06:36:39;;;;;;;0.10;0.10;;;;;;;17.54;58.46;101353.19;5106705;28;20083;-74
2022/06/07 06:39:06;;;;;;;1.45;1.10;;;;;;;17.57;59.11;101354.88;5103099;27;20020;-73
2022/06/07 06:41:33;;;;;;;0.10;0.10;;;;;;;17.56;58.90;101355.84;5104496;28;20410;-73
2022/06/07 06:44:02;;;;;;;0.32;0.32;;;;;;;17.55;59.26;101356.75;5110021;27;20509;-72
2022/06/07 06:46:34;;;;;;;0.17;0.17;;;;;;;17.69;59.13;101356.19;5093885;27;20105;-73
2022/06/07 06:49:03;;;;;;;0.13;0.13;;;;;;;17.64;58.65;101359.03;5100289;27;20036;-73
2022/06/07 06:51:30;;;;;;;1.52;1.45;;;;;;;17.56;58.78;101356.69;5091280;28;20033;-73
2022/06/07 06:53:58;;;;;;;3.40;2.83;;;;;;;17.73;58.88;101355.09;5100027;28;20031;-73
2022/06/07 06:56:25;;;;;;;0.55;0.55;;;;;;;17.65;58.87;101352.75;5110927;28;20035;-73
2022/06/07 06:58:52;;;;;;;0.10;0.10;;;;;;;17.92;59.00;101349.88;5110801;27;20037;-73
2022/06/07 07:01:22;;;;;;;0.17;0.17;;;;;;;17.77;58.79;101362.09;5091494;28;20397;-73
2022/06/07 07:03:49;;;;;;;0.10;0.10;;;;;;;17.97;58.54;101361.28;5092758;28;20027;-73
2022/06/07 07:06:16;;;;;;;0.10;0.10;;;;;;;18.00;58.43;101357.59;5108582;27;20047;-73
2022/06/07 07:08:45;;;;;;;0.10;0.10;;;;;;;18.14;58.69;101359.69;5090707;28;20103;-73
2022/06/07 07:13:49;;;;;;;1.02;1.00;;;;;;;18.09;57.91;101358.09;5107588;27;20051;-72
2022/06/07 07:16:21;;;;;;;0.10;0.10;;;;;;;18.35;57.64;101357.88;5091185;28;20504;-73
2022/06/07 07:18:48;;;;;;;0.98;0.98;;;;;;;18.41;58.12;101353.09;5092226;28;20028;-73
2022/06/07 07:21:18;;;;;;;0.10;0.10;;;;;;;18.47;58.03;101356.44;5099257;28;20032;-73
2022/06/07 07:23:44;;;;;;;0.40;0.40;;;;;;;18.47;57.94;101354.63;5094529;27;20042;-73
2022/06/07 07:26:15;;;;;;;0.10;0.10;;;;;;;18.54;57.96;101355.22;5104964;28;20032;-73
2022/06/07 07:28:42;;;;;;;0.37;0.37;;;;;;;18.56;57.54;101356.03;5104846;28;20040;-73
2022/06/07 07:31:13;;;;;;;0.30;0.30;;;;;;;18.38;55.93;101363.97;5098693;28;20025;-73
2022/06/07 07:33:40;;;;;;;0.38;0.38;;;;;;;18.69;56.23;101359.00;5097323;28;20732;-73
2022/06/07 07:36:07;;;;;;;0.43;0.43;;;;;;;18.68;55.75;101365.31;5095259;28;20028;-73
2022/06/07 07:38:34;;;;;;;0.13;0.13;;;;;;;18.66;55.08;101364.53;5106165;28;20473;-72
2022/06/07 07:41:01;;;;;;;0.28;0.28;;;;;;;18.84;55.54;101362.81;5106978;28;20031;-72
2022/06/07 07:43:28;;;;;;;0.13;0.13;;;;;;;18.79;54.67;101363.03;5107322;28;20028;-72
2022/06/07 07:45:55;;;;;;;0.65;0.57;;;;;;;18.71;54.30;101365.19;5107721;28;20026;-73
2022/06/07 07:48:23;;;;;;;0.10;0.10;;;;;;;18.74;54.04;101360.56;5104502;28;20046;-73
2022/06/07 07:50:49;;;;;;;1.15;0.85;;;;;;;18.85;54.79;101359.19;5086709;28;20042;-73
2022/06/07 07:53:18;;;;;;;0.22;0.22;;;;;;;18.85;54.16;101357.34;5087304;28;20036;-73
2022/06/07 07:55:45;;;;;;;0.30;0.30;;;;;;;18.69;54.12;101367.94;5088664;28;20027;-72
2022/06/07 07:58:12;;;;;;;0.20;0.20;;;;;;;18.73;53.79;101368.69;5099487;28;20028;-72
2022/06/07 08:00:46;;;;;;;3.30;1.08;;;;;;;19.02;54.60;101375.41;5097516;28;20036;-73
2022/06/07 08:03:12;;;;;;;0.30;0.30;;;;;;;19.03;54.05;101365.56;5104885;28;20435;-73
2022/06/07 08:05:39;;;;;;;0.63;0.63;;;;;;;18.92;53.54;101369.59;5103126;28;20049;-72
2022/06/07 08:08:07;;;;;;;0.55;0.55;;;;;;;19.21;54.10;101364.66;5099100;28;21337;-73
2022/06/07 08:10:34;;;;;;;0.10;0.10;;;;;;;19.28;53.50;101367.94;5092235;28;20109;-73
2022/06/07 08:13:01;;;;;;;0.10;0.10;;;;;;;19.29;53.25;101379.53;5099528;28;20124;-73
2022/06/07 08:15:29;;;;;;;0.50;0.50;;;;;;;19.16;52.65;101377.44;5107005;28;20058;-72
2022/06/07 08:17:57;;;;;;;0.20;0.20;;;;;;;19.23;52.67;101361.91;5089458;28;20028;-72
2022/06/07 08:20:24;;;;;;;0.63;0.63;;;;;;;19.29;52.04;101375.03;5086646;28;20493;-73
2022/06/07 08:22:51;;;;;;;0.22;0.22;;;;;;;19.37;52.92;101362.09;5091753;28;20038;-73
2022/06/07 08:25:17;;;;;;;0.20;0.20;;;;;;;19.35;52.77;101360.41;5085690;28;20098;-73
2022/06/07 08:27:44;;;;;;;0.30;0.30;;;;;;;19.32;52.57;101358.75;5091637;28;20028;-73
2022/06/07 08:30:11;;;;;;;0.30;0.30;;;;;;;19.38;52.77;101355.78;5090869;28;20056;-73
2022/06/07 08:32:37;;;;;;;0.85;0.65;;;;;;;19.49;52.59;101357.94;5091676;28;20070;-73
2022/06/07 08:37:50;;;;;;;1.05;0.95;;;;;;;19.71;52.87;101356.84;5093425;28;20044;-74
2022/06/07 08:40:23;;;;;;;0.20;0.20;;;;;;;19.77;51.80;101371.81;5093511;28;20405;-73
2022/06/07 08:42:55;;;;;;;0.47;0.47;;;;;;;19.71;51.70;101363.13;5083326;28;20044;-73
2022/06/07 08:45:30;;;;;;;0.10;0.10;;;;;;;19.87;52.06;101367.75;5073530;28;20028;-73
2022/06/07 08:48:01;;;;;;;0.20;0.20;;;;;;;20.02;52.14;101369.63;5073109;28;20059;-74
2022/06/07 08:55:56;;;;;;;0.20;0.20;;;;;;;20.19;51.21;101363.41;5088264;27;20896;-73
2022/06/07 08:58:29;;;;;;;0.75;0.75;;;;;;;20.36;51.70;101354.44;5088207;28;20033;-74
2022/06/07 09:00:59;;;;;;;0.10;0.10;;;;;;;20.39;50.50;101368.66;5087548;28;20553;-74
2022/06/07 09:06:05;;;;;;;0.80;0.80;;;;;;;20.34;50.60;101356.34;5108650;27;20388;-73
2022/06/07 09:08:43;;;;;;;0.30;0.30;;;;;;;20.30;50.78;101360.16;5108637;28;20032;-74
2022/06/07 09:14:06;;;;;;;0.30;0.30;;;;;;;20.11;50.49;101365.63;5106622;28;20036;-74
2022/06/07 09:16:42;;;;;;;0.20;0.20;;;;;;;20.00;50.78;101363.50;5093920;28;20032;-74
2022/06/07 09:19:14;;;;;;;0.10;0.10;;;;;;;19.94;51.11;101366.50;5088096;28;20107;-73
2022/06/07 09:21:43;;;;;;;0.10;0.10;;;;;;;19.84;51.80;101363.41;5087294;28;20028;-74
2022/06/07 09:24:20;;;;;;;0.10;0.10;;;;;;;20.03;51.02;101365.16;5094830;28;20024;-73
2022/06/07 09:26:46;;;;;;;1.95;1.02;;;;;;;20.13;51.49;101360.16;5108249;28;20048;-74
2022/06/07 09:29:19;;;;;;;0.50;0.50;;;;;;;20.22;51.01;101353.44;5108261;28;20023;-74
2022/06/07 09:31:48;;;;;;;0.50;0.50;;;;;;;20.28;50.76;101362.03;5107401;28;20024;-74
2022/06/07 09:34:29;;;;;;;0.20;0.20;;;;;;;20.47;50.66;101355.69;5108130;28;20550;-74
2022/06/07 09:37:04;;;;;;;0.10;0.10;;;;;;;20.42;50.20;101363.13;5108032;28;20036;-74
2022/06/07 09:39:36;;;;;;;1.10;0.85;;;;;;;20.38;51.11;101364.25;5108002;28;20020;-74
2022/06/07 09:45:14;;;;;;;0.10;0.10;;;;;;;20.64;50.86;101352.94;5068160;28;20382;-73
2022/06/07 09:47:40;;;;;;;0.10;0.10;;;;;;;20.49;50.61;101356.47;5068262;28;20575;-73
2022/06/07 09:50:25;;;;;;;1.38;1.23;;;;;;;20.78;51.02;101362.13;5068112;28;20027;-74
2022/06/07 09:52:57;;;;;;;1.17;1.17;;;;;;;20.72;50.94;101357.94;5067338;28;20056;-73
2022/06/07 10:01:11;;;;;;;0.13;0.13;;;;;;;20.71;50.42;101364.31;5067404;28;20361;-74
2022/06/07 10:12:02;;;;;;;0.10;0.10;;;;;;;20.93;49.97;101358.59;5087661;28;20332;-72
2022/06/07 10:14:51;;;;;;;0.63;0.63;;;;;;;20.93;50.01;101361.28;5088145;28;20058;-72
2022/06/07 10:31:09;;;;;;;0.20;0.20;;;;;;;21.17;49.17;101358.16;5067751;28;20385;-72
2022/06/07 10:33:58;;;;;;;0.65;0.57;;;;;;;21.33;48.90;101355.47;5067929;28;20040;-73
2022/06/07 10:36:54;;;;;;;0.10;0.10;;;;;;;21.38;49.48;101358.75;5067919;28;20028;-73
2022/06/07 10:50:30;;;;;;;0.32;0.32;;;;;;;21.22;49.25;101364.19;5088252;28;20325;-72
2022/06/07 10:53:05;;;;;;;0.10;0.10;;;;;;;21.25;49.34;101360.44;5087329;28;20039;-73
2022/06/07 10:55:43;;;;;;;0.73;0.55;;;;;;;21.16;50.11;101361.84;5088397;28;20090;-73
2022/06/07 10:58:31;;;;;;;0.20;0.20;;;;;;;21.05;49.02;101361.53;5087938;28;20047;-73
2022/06/07 11:04:09;;;;;;;1.00;0.90;;;;;;;21.13;50.07;101359.31;5108582;27;20893;-73
2022/06/07 11:12:08;;;;;;;0.85;0.85;;;;;;;20.99;49.60;101360.94;5086512;27;20404;-73
2022/06/07 11:15:04;;;;;;;0.10;0.10;;;;;;;21.22;50.04;101355.22;5084478;28;20844;-73
2022/06/07 11:17:57;;;;;;;0.30;0.30;;;;;;;21.30;50.00;101366.44;5086668;28;20016;-73
2022/06/07 11:20:27;;;;;;;0.43;0.43;;;;;;;21.31;49.65;101363.66;5065406;28;20107;-73
2022/06/07 11:25:41;;;;;;;0.10;0.10;;;;;;;21.16;49.53;101369.91;5107531;27;20384;-73
2022/06/07 11:28:23;;;;;;;0.10;0.10;;;;;;;21.10;49.09;101364.88;5107637;28;20052;-73
2022/06/07 11:30:53;;;;;;;0.10;0.10;;;;;;;21.18;49.74;101359.91;5109236;28;20073;-73
2022/06/07 11:33:57;;;;;;;0.28;0.28;;;;;;;21.57;49.58;101358.63;5128951;27;20124;-73
2022/06/07 11:41:44;;;;;;;0.25;0.25;;;;;;;22.20;48.34;101359.38;5075929;27;1860437;-73
2022/06/07 11:52:32;;;;;;;0.30;0.30;;;;;;;22.09;46.88;101354.66;5103260;27;20415;-73
2022/06/07 11:55:14;;;;;;;0.10;0.10;;;;;;;22.26;47.62;101345.50;5086415;28;20028;-73
2022/06/07 12:11:21;;;;;;;0.10;0.10;;;;;;;22.52;45.61;101361.97;5106650;27;20408;-73
2022/06/07 12:16:38;;;;;;;0.20;0.20;;;;;;;22.46;46.48;101347.00;5107803;27;20378;-73
2022/06/07 12:19:22;;;;;;;0.30;0.30;;;;;;;22.75;46.28;101351.53;5089527;28;20070;-73
2022/06/07 12:24:42;;;;;;;0.20;0.20;;;;;;;22.80;45.85;101344.00;5067705;28;20360;-73
2022/06/07 12:27:32;;;;;;;0.10;0.10;;;;;;;23.16;45.42;101342.63;5068163;28;20036;-73
2022/06/07 12:30:03;;;;;;;0.80;0.80;;;;;;;23.33;45.61;101335.25;5066981;28;20112;-73
2022/06/07 12:32:33;;;;;;;0.10;0.10;;;;;;;23.67;44.87;101331.16;5067651;28;20029;-73
2022/06/07 12:37:56;;;;;;;0.38;0.38;;;;;;;24.02;44.78;101329.75;5108523;27;20354;-73
2022/06/07 12:43:01;;;;;;;0.80;0.80;;;;;;;24.06;44.49;101325.84;5087269;27;20389;-73
2022/06/07 12:45:33;;;;;;;0.30;0.30;;;;;;;24.05;43.56;101322.28;5085594;28;20035;-73
2022/06/07 12:48:08;;;;;;;0.25;0.25;;;;;;;23.96;43.40;101327.47;5077146;28;20040;-73
2022/06/07 12:50:39;;;;;;;0.10;0.10;;;;;;;24.09;43.08;101322.06;5073780;28;20033;-73
2022/06/07 12:53:06;;;;;;;0.10;0.10;;;;;;;24.08;43.61;101337.44;5078237;28;20805;-72
2022/06/07 12:55:36;;;;;;;0.52;0.52;;;;;;;23.97;43.81;101327.34;5069425;28;20044;-73
2022/06/07 12:58:15;;;;;;;1.08;0.40;;;;;;;24.05;43.44;101324.09;5077479;28;20426;-72
2022/06/07 13:00:45;;;;;;;0.10;0.10;;;;;;;24.14;43.37;101322.59;5075460;28;20118;-73
2022/06/07 13:03:29;;;;;;;0.20;0.20;;;;;;;24.25;42.34;101327.25;5077327;28;20101;-74
2022/06/07 13:06:04;;;;;;;0.40;0.40;;;;;;;24.30;42.61;101333.22;5085931;28;20040;-73
2022/06/07 13:08:36;;;;;;;0.20;0.20;;;;;;;24.40;42.85;101320.78;5084912;28;20047;-75
2022/06/07 13:11:09;;;;;;;0.35;0.28;;;;;;;24.35;42.40;101325.63;5082766;28;20028;-74
2022/06/07 13:13:39;;;;;;;1.08;1.08;;;;;;;24.11;43.06;101315.56;5086776;28;20454;-75
2022/06/07 13:19:17;;;;;;;2.10;1.40;;;;;;;23.90;44.00;101309.75;5069389;28;20746;-73
2022/06/07 13:24:27;;;;;;;0.10;0.10;;;;;;;23.83;43.06;101314.75;5101683;27;1203902;-74
2022/06/07 13:27:04;;;;;;;0.28;0.28;;;;;;;24.03;42.71;101313.38;5116593;28;20515;-74
2022/06/07 13:29:35;;;;;;;0.20;0.20;;;;;;;24.34;43.46;101299.56;5117585;28;20035;-73
2022/06/07 13:34:57;;;;;;;0.40;0.40;;;;;;;24.97;42.15;101292.31;5094362;27;20236;-74
2022/06/07 13:37:26;;;;;;;0.00;0.00;;;;;;;25.29;41.51;101290.88;5084861;28;20107;-74
2022/06/07 13:45:44;;;;;;;0.45;0.45;;;;;;;25.15;40.64;101290.06;5067597;28;20407;-74